Aurora, CO (80017)

3:07 PM MDT on July 29, 2016 (GMT -0600)
Buckley & Mississippi Tollgate | | Change Station
Active Advisory: Severe Thunderstorm Watch Active Notice: Local Storm Report

Elev 5620 ft 39.70 °N, 104.78 °W | Updated 4 seconds ago

Partly Cloudy
Partly Cloudy
86.3 °F
Feels Like 85 °F
N
2.0
Wind Variable Wind from NW
Gusts 7.0 mph

Today
High -- | Low -- °F
--% Chance of Precip.
Yesterday
High -- | Low -- °F
Precip. -- in
Pressure 29.92 in
Visibility 10.0 miles
Clouds Few 5000 ft
Few 15000 ft
Heat Index 85 °F
Dew Point 56 °F
Humidity 36%
Rainfall 0.00 in
Snow Depth Not available.
5:56 AM 8:14 PM
Waning Crescent, 19% visible
METAR KBKF 292058Z 06006KT 10SM FEW050 FEW150 29/12 A3015 RMK AO2A SLP131 T02900119 57017
Pressure 29.92 in
Visibility 10.0 miles
Clouds Few 5000 ft
Few 15000 ft
Heat Index 85 °F
Dew Point 56 °F
Humidity 36%
Rainfall 0.00 in
Snow Depth Not available.
5:56 AM 8:14 PM
Waning Crescent, 19% visible
METAR KBKF 292058Z 06006KT 10SM FEW050 FEW150 29/12 A3015 RMK AO2A SLP131 T02900119 57017

10-Day Weather Forecast

Almanac

Astronomy

Jul. 29, 2016 Rise Set
Actual Time
Civil Twilight
Nautical Twilight
Astronomical Twilight
Moon
Length of Visible Light
Length of Day
Tomorrow will be .
, % of the Moon is Illuminated

Today's Extremes

State Highs State Lows

Community

WunderPhotos

Upload Photos

1,928,416 photos uploaded!

WunderBlog® & News

Nearby

Air Quality

  Air Quality AQ Index Pollutant
Not available.

Snow Depth

Station Depth Elevation

Earthquake Activity

City Distance Mag. Time & Date
Minimum magnitude displayed is 2.5.

Coastal Water Temperatures

Place Temperature

Stations

Nearby Weather Stations

Station Location Temp. Windchill Dew Point Humidity Wind Precip. Elev Updated Type
                   

Watches & Warnings

Severe Thunderstorm Watch
Issued: 3:03 PM MDT Jul. 29, 2016 – National Weather Service

Severe Thunderstorm Watch 422 remains in effect until 1000 PM MDT
for the following locations


Co
. Colorado counties included are

Adams Arapahoe Boulder
Broomfield Denver Douglas
Elbert El Paso Jefferson
Larimer Lincoln Morgan
Washington Weld